^^
Datos históricos de la estación: Murcia-Puente Tocinos
 
Diario Informe para Marzo 30, 2017 Unidades:  Métrico    Inglés   Ambas
« Anterior Día
Siguiente Día »
Diario Semanal Mensual Anual Configurable
  Actual: Máximo: Mínimo: Media:
Temperatura: 17.2 °C 21.7 °C 11.9 °C 16.2 °C
Punto de rocio: 9.4 °C 12.4 °C 1.4 °C 8.6 °C
Humedad: 60% 96% 27% 67%
Velocidad viento: 11.3km/h 16.1km/h 0.0km/h 7.5km/h
Racha viento: 16.1km/h 34.3km/h - -
VientoNE - - SE
Presión: 1021.9 hPa 1024.9 hPa 1021.2 hPa -
Precipitación: 0.0 mm      
Historical Graphs
 
 
Tabla de datos para Marzo 30, 2017
Hora Temperatura Punto de rocio Presión Viento Velocidad viento Racha viento Humedad Intensidad lluvia(por hora) Nubes
00:04 13.9 °C 12.4 °C 1024.9 hPa NNE 8.4 km/h 34.3 km/h 91% 0.0 mm CLR
00:09 13.9 °C 12.4 °C 1024.9 hPa NNE 8.4 km/h 34.3 km/h 91% 0.0 mm CLR
00:14 13.9 °C 12.4 °C 1024.9 hPa NNE 8.4 km/h 34.3 km/h 91% 0.0 mm CLR
00:19 13.9 °C 12.4 °C 1024.9 hPa NNE 8.4 km/h 34.3 km/h 91% 0.0 mm CLR
00:24 13.9 °C 12.4 °C 1024.9 hPa NNE 8.4 km/h 34.3 km/h 91% 0.0 mm CLR
00:29 13.9 °C 12.4 °C 1024.9 hPa NNE 8.4 km/h 34.3 km/h 91% 0.0 mm CLR
00:34 13.9 °C 12.4 °C 1024.9 hPa NNE 8.4 km/h 34.3 km/h 91% 0.0 mm CLR
00:48 13.8 °C 12.3 °C 1024.9 hPa ENE 2.9 km/h 3.9 km/h 91% 0.0 mm CLR
00:53 13.9 °C 12.4 °C 1024.9 hPa East 2.9 km/h 5.6 km/h 91% 0.0 mm CLR
00:58 13.8 °C 12.2 °C 1024.9 hPa East 2.9 km/h 5.6 km/h 90% 0.0 mm CLR
01:03 13.8 °C 12.0 °C 1024.9 hPa East 2.9 km/h 5.6 km/h 89% 0.0 mm CLR
01:08 13.8 °C 12.2 °C 1024.9 hPa WNW 2.3 km/h 5.6 km/h 90% 0.0 mm CLR
01:13 13.7 °C 11.9 °C 1024.9 hPa WNW 2.3 km/h 5.6 km/h 89% 0.0 mm CLR
01:18 13.7 °C 11.9 °C 1024.9 hPa NNE 2.3 km/h 5.6 km/h 89% 0.0 mm CLR
01:23 13.6 °C 11.8 °C 1024.9 hPa NNE 2.3 km/h 5.8 km/h 89% 0.0 mm CLR
01:28 13.5 °C 11.7 °C 1024.9 hPa NNE 3.2 km/h 5.8 km/h 89% 0.0 mm CLR
01:33 13.4 °C 11.8 °C 1024.9 hPa NNE 3.2 km/h 5.8 km/h 90% 0.0 mm CLR
01:38 13.4 °C 11.8 °C 1024.6 hPa NNE 2.9 km/h 5.8 km/h 90% 0.0 mm CLR
01:43 13.4 °C 11.8 °C 1024.6 hPa NNE 2.9 km/h 5.8 km/h 90% 0.0 mm CLR
01:48 13.3 °C 11.7 °C 1024.6 hPa NNE 2.3 km/h 5.8 km/h 90% 0.0 mm CLR
01:53 13.3 °C 11.7 °C 1024.6 hPa NNE 2.3 km/h 5.8 km/h 90% 0.0 mm CLR
01:58 13.2 °C 11.6 °C 1024.6 hPa NNE 2.3 km/h 5.8 km/h 90% 0.0 mm CLR
02:03 13.2 °C 11.6 °C 1024.6 hPa NNE 2.3 km/h 5.8 km/h 90% 0.0 mm CLR
02:08 13.1 °C 11.5 °C 1024.6 hPa Calm   5.8 km/h 90% 0.0 mm CLR
02:13 13.1 °C 11.5 °C 1024.6 hPa Calm   5.8 km/h 90% 0.0 mm CLR
02:18 13.1 °C 11.5 °C 1024.6 hPa SW 2.3 km/h 7.4 km/h 90% 0.0 mm CLR
02:23 13.1 °C 11.5 °C 1024.6 hPa SW 2.3 km/h 7.4 km/h 90% 0.0 mm CLR
02:28 13.1 °C 11.5 °C 1024.6 hPa SW 2.9 km/h 7.4 km/h 90% 0.0 mm CLR
02:33 13.2 °C 11.6 °C 1024.6 hPa SW 2.9 km/h 7.4 km/h 90% 0.0 mm CLR
02:38 13.2 °C 11.4 °C 1024.6 hPa South 2.9 km/h 7.4 km/h 89% 0.0 mm CLR
02:43 13.2 °C 11.3 °C 1024.6 hPa SW 2.9 km/h 11.1 km/h 88% 0.0 mm CLR
02:48 13.2 °C 11.1 °C 1024.6 hPa SW 5.0 km/h 11.1 km/h 87% 0.0 mm CLR
02:53 13.2 °C 11.1 °C 1024.6 hPa SW 5.0 km/h 11.1 km/h 87% 0.0 mm CLR
02:58 13.2 °C 11.1 °C 1024.6 hPa SSW 5.0 km/h 11.1 km/h 87% 0.0 mm CLR
03:03 13.2 °C 11.1 °C 1024.6 hPa South 5.0 km/h 11.1 km/h 87% 0.0 mm CLR
03:08 13.2 °C 11.1 °C 1024.6 hPa SSW 5.8 km/h 11.1 km/h 87% 0.0 mm CLR
03:13 13.1 °C 11.0 °C 1024.6 hPa SW 5.8 km/h 11.1 km/h 87% 0.0 mm CLR
03:18 13.1 °C 11.0 °C 1024.6 hPa SW 5.0 km/h 11.1 km/h 87% 0.0 mm CLR
03:23 13.1 °C 11.0 °C 1024.6 hPa SW 5.0 km/h 11.1 km/h 87% 0.0 mm CLR
03:28 13.1 °C 11.0 °C 1024.6 hPa SW 3.9 km/h 11.1 km/h 87% 0.0 mm CLR
03:33 12.9 °C 10.4 °C 1024.6 hPa SE 3.9 km/h 11.1 km/h 85% 0.0 mm CLR
03:38 12.8 °C 10.3 °C 1024.6 hPa SSE 3.2 km/h 11.1 km/h 85% 0.0 mm CLR
03:43 12.7 °C 10.2 °C 1024.6 hPa SSE 3.2 km/h 11.1 km/h 85% 0.0 mm CLR
03:48 12.6 °C 10.5 °C 1024.6 hPa SSE 3.9 km/h 11.1 km/h 87% 0.0 mm CLR
03:53 12.7 °C 11.1 °C 1024.3 hPa WSW 3.9 km/h 11.1 km/h 90% 0.0 mm CLR
03:58 12.8 °C 11.7 °C 1024.3 hPa West 3.9 km/h 11.1 km/h 93% 0.0 mm CLR
04:03 12.8 °C 11.7 °C 1024.3 hPa West 3.9 km/h 11.1 km/h 93% 0.0 mm CLR
04:08 12.9 °C 11.8 °C 1024.3 hPa West 2.9 km/h 11.1 km/h 93% 0.0 mm CLR
04:13 12.9 °C 11.8 °C 1024.3 hPa West 2.9 km/h 11.1 km/h 93% 0.0 mm CLR
04:18 12.9 °C 11.8 °C 1024.3 hPa West 2.3 km/h 11.1 km/h 93% 0.0 mm CLR
04:23 12.8 °C 11.2 °C 1024.3 hPa West 2.3 km/h 11.1 km/h 90% 0.0 mm CLR
04:24 12.8 °C 11.2 °C 1024.3 hPa West 2.3 km/h 11.1 km/h 90% 0.0 mm CLR
04:29 12.7 °C 11.1 °C 1024.3 hPa West 2.3 km/h 11.1 km/h 90% 0.0 mm CLR
04:34 12.7 °C 11.4 °C 1024.3 hPa WNW 2.3 km/h 11.1 km/h 92% 0.0 mm CLR
04:39 12.7 °C 11.4 °C 1024.3 hPa WNW 2.3 km/h 11.1 km/h 92% 0.0 mm CLR
04:44 12.6 °C 11.0 °C 1024.3 hPa ENE 2.3 km/h 11.1 km/h 90% 0.0 mm CLR
04:49 12.3 °C 10.7 °C 1024.3 hPa East 3.2 km/h 11.1 km/h 90% 0.0 mm CLR
04:54 12.1 °C 10.5 °C 1024.3 hPa East 3.2 km/h 11.1 km/h 90% 0.0 mm CLR
04:59 11.9 °C 10.7 °C 1024.3 hPa ESE 3.9 km/h 11.1 km/h 92% 0.0 mm CLR
05:04 11.9 °C 10.7 °C 1024.3 hPa ESE 3.9 km/h 11.1 km/h 92% 0.0 mm CLR
05:09 11.9 °C 10.7 °C 1023.9 hPa East 3.9 km/h 11.1 km/h 92% 0.0 mm CLR
05:14 11.9 °C 10.8 °C 1023.9 hPa ESE 3.9 km/h 11.1 km/h 93% 0.0 mm CLR
05:19 11.9 °C 10.8 °C 1023.9 hPa ESE 3.9 km/h 11.1 km/h 93% 0.0 mm CLR
05:24 11.9 °C 10.8 °C 1023.6 hPa East 3.9 km/h 11.1 km/h 93% 0.0 mm CLR
05:29 11.9 °C 10.8 °C 1023.6 hPa SE 3.9 km/h 11.1 km/h 93% 0.0 mm CLR
05:34 11.9 °C 10.9 °C 1023.6 hPa SE 3.9 km/h 11.1 km/h 94% 0.0 mm CLR
05:39 11.9 °C 10.9 °C 1023.6 hPa SSW 4.7 km/h 11.1 km/h 94% 0.0 mm CLR
05:44 11.9 °C 10.9 °C 1023.6 hPa SSE 4.7 km/h 11.1 km/h 94% 0.0 mm CLR
05:49 11.9 °C 11.1 °C 1023.6 hPa South 4.7 km/h 11.1 km/h 95% 0.0 mm CLR
05:54 12.0 °C 11.2 °C 1023.6 hPa SSW 4.7 km/h 11.1 km/h 95% 0.0 mm CLR
05:59 12.2 °C 11.6 °C 1023.6 hPa SSW 4.7 km/h 11.1 km/h 96% 0.0 mm CLR
06:04 12.3 °C 11.7 °C 1023.6 hPa SW 4.7 km/h 11.1 km/h 96% 0.0 mm CLR
06:09 12.3 °C 11.7 °C 1023.6 hPa SE 5.8 km/h 11.1 km/h 96% 0.0 mm CLR
06:14 12.3 °C 11.5 °C 1023.6 hPa SSE 5.8 km/h 11.1 km/h 95% 0.0 mm CLR
06:19 12.4 °C 11.6 °C 1023.6 hPa SW 5.8 km/h 11.1 km/h 95% 0.0 mm CLR
06:24 12.4 °C 11.6 °C 1023.6 hPa SSW 5.8 km/h 11.1 km/h 95% 0.0 mm CLR
06:29 12.4 °C 11.6 °C 1023.6 hPa SSW 6.4 km/h 11.1 km/h 95% 0.0 mm CLR
06:34 12.4 °C 11.8 °C 1023.6 hPa SW 6.4 km/h 11.1 km/h 96% 0.0 mm CLR
06:39 12.4 °C 11.8 °C 1023.6 hPa SSE 5.8 km/h 11.1 km/h 96% 0.0 mm CLR
06:44 12.4 °C 11.6 °C 1023.6 hPa South 5.8 km/h 11.1 km/h 95% 0.0 mm CLR
06:49 12.4 °C 11.6 °C 1023.6 hPa SE 4.7 km/h 11.1 km/h 95% 0.0 mm CLR
06:54 12.4 °C 11.4 °C 1023.6 hPa SSE 4.7 km/h 11.1 km/h 94% 0.0 mm CLR
06:59 12.3 °C 11.4 °C 1023.6 hPa South 5.8 km/h 11.1 km/h 94% 0.0 mm CLR
07:04 12.4 °C 11.4 °C 1023.6 hPa SW 5.8 km/h 11.1 km/h 94% 0.0 mm CLR
07:09 12.4 °C 11.3 °C 1023.6 hPa SSW 6.4 km/h 11.1 km/h 93% 0.0 mm CLR
07:14 12.3 °C 11.2 °C 1023.6 hPa SSW 6.4 km/h 11.1 km/h 93% 0.0 mm CLR
07:19 12.2 °C 11.1 °C 1023.6 hPa South 6.4 km/h 11.1 km/h 93% 0.0 mm CLR
07:24 12.2 °C 11.1 °C 1023.6 hPa South 6.4 km/h 11.1 km/h 93% 0.0 mm CLR
07:29 12.1 °C 11.0 °C 1023.6 hPa South 6.4 km/h 11.1 km/h 93% 0.0 mm CLR
07:34 12.1 °C 11.0 °C 1023.6 hPa SSE 6.4 km/h 11.1 km/h 93% 0.0 mm CLR
07:39 12.2 °C 10.9 °C 1023.6 hPa SW 6.4 km/h 11.1 km/h 92% 0.0 mm CLR
07:44 12.2 °C 10.8 °C 1023.6 hPa South 6.4 km/h 11.1 km/h 91% 0.0 mm CLR
07:49 12.2 °C 10.8 °C 1023.6 hPa SSW 5.8 km/h 11.1 km/h 91% 0.0 mm CLR
07:54 12.3 °C 10.7 °C 1023.6 hPa SE 5.8 km/h 11.1 km/h 90% 0.0 mm CLR
07:59 12.3 °C 10.7 °C 1023.6 hPa SSE 4.7 km/h 11.1 km/h 90% 0.0 mm CLR
08:04 12.3 °C 10.6 °C 1023.6 hPa SSE 4.7 km/h 11.1 km/h 89% 0.0 mm CLR
08:09 12.3 °C 10.6 °C 1023.6 hPa SSE 5.8 km/h 11.1 km/h 89% 0.0 mm CLR
08:14 12.4 °C 10.4 °C 1023.6 hPa WNW 5.8 km/h 11.1 km/h 88% 0.0 mm CLR
08:19 12.4 °C 10.3 °C 1023.6 hPa NW 3.9 km/h 11.1 km/h 87% 0.0 mm CLR
08:24 12.4 °C 10.3 °C 1023.9 hPa WNW 3.9 km/h 11.1 km/h 87% 0.0 mm CLR
08:29 12.3 °C 10.0 °C 1023.9 hPa West 3.9 km/h 11.1 km/h 86% 0.0 mm CLR
08:34 12.3 °C 10.0 °C 1023.9 hPa West 3.9 km/h 11.1 km/h 86% 0.0 mm CLR
08:39 12.3 °C 9.7 °C 1024.3 hPa WSW 5.0 km/h 11.1 km/h 84% 0.0 mm CLR
08:44 12.3 °C 9.5 °C 1024.3 hPa WSW 5.0 km/h 11.1 km/h 83% 0.0 mm CLR
08:49 12.4 °C 9.4 °C 1024.3 hPa WNW 4.7 km/h 11.1 km/h 82% 0.0 mm CLR
08:54 12.5 °C 9.5 °C 1024.3 hPa WNW 4.7 km/h 11.1 km/h 82% 0.0 mm CLR
08:59 12.5 °C 9.5 °C 1024.3 hPa WSW 5.8 km/h 11.1 km/h 82% 0.0 mm CLR
09:04 12.6 °C 9.6 °C 1024.3 hPa SW 5.8 km/h 11.1 km/h 82% 0.0 mm CLR
09:09 12.8 °C 9.6 °C 1024.3 hPa WSW 5.0 km/h 11.1 km/h 81% 0.0 mm CLR
09:14 12.9 °C 9.9 °C 1024.3 hPa West 4.8 km/h 9.7 km/h 82% 0.0 mm CLR
09:15 12.9 °C 9.9 °C 1024.3 hPa WNW 5.0 km/h 11.1 km/h 82% 0.0 mm CLR
09:20 13.0 °C 10.0 °C 1024.3 hPa SW 6.4 km/h 11.1 km/h 82% 0.0 mm CLR
09:25 13.2 °C 10.2 °C 1024.3 hPa SW 6.4 km/h 12.2 km/h 82% 0.0 mm CLR
09:30 13.2 °C 10.2 °C 1024.3 hPa WSW 6.4 km/h 13.0 km/h 82% 0.0 mm CLR
09:35 13.2 °C 10.2 °C 1024.6 hPa WSW 6.4 km/h 13.0 km/h 82% 0.0 mm CLR
09:40 13.2 °C 10.4 °C 1024.6 hPa WSW 6.9 km/h 13.0 km/h 83% 0.0 mm CLR
09:45 13.3 °C 10.5 °C 1024.6 hPa West 6.9 km/h 13.0 km/h 83% 0.0 mm CLR
09:50 13.5 °C 10.7 °C 1024.6 hPa SSW 5.8 km/h 13.0 km/h 83% 0.0 mm CLR
09:55 13.7 °C 10.7 °C 1024.6 hPa SSW 5.8 km/h 13.0 km/h 82% 0.0 mm CLR
10:00 13.8 °C 10.8 °C 1024.6 hPa South 5.8 km/h 13.0 km/h 82% 0.0 mm CLR
10:05 14.0 °C 11.0 °C 1024.6 hPa SSW 5.8 km/h 13.0 km/h 82% 0.0 mm CLR
10:10 14.0 °C 11.0 °C 1024.6 hPa SW 6.4 km/h 13.0 km/h 82% 0.0 mm CLR
10:15 14.1 °C 10.9 °C 1024.6 hPa SSE 6.4 km/h 13.0 km/h 81% 0.0 mm CLR
10:20 14.3 °C 10.9 °C 1024.6 hPa SW 5.8 km/h 13.0 km/h 80% 0.0 mm CLR
10:25 14.5 °C 11.1 °C 1024.6 hPa South 5.8 km/h 13.0 km/h 80% 0.0 mm CLR
10:30 14.6 °C 11.0 °C 1024.6 hPa South 5.0 km/h 13.0 km/h 79% 0.0 mm CLR
10:35 14.7 °C 10.9 °C 1024.6 hPa SSE 5.0 km/h 13.0 km/h 78% 0.0 mm CLR
10:40 14.9 °C 11.1 °C 1024.6 hPa SSE 6.4 km/h 13.0 km/h 78% 0.0 mm CLR
10:45 15.2 °C 11.0 °C 1024.6 hPa WSW 6.4 km/h 13.0 km/h 76% 0.0 mm CLR
10:50 15.2 °C 10.8 °C 1024.6 hPa WSW 5.0 km/h 13.0 km/h 75% 0.0 mm CLR
10:55 15.3 °C 11.1 °C 1024.6 hPa NNE 5.0 km/h 13.0 km/h 76% 0.0 mm CLR
11:00 15.7 °C 11.1 °C 1024.6 hPa SW 4.7 km/h 13.0 km/h 74% 0.0 mm CLR
11:05 15.9 °C 11.1 °C 1024.6 hPa SW 4.7 km/h 13.0 km/h 73% 0.0 mm CLR
11:10 15.9 °C 10.7 °C 1024.6 hPa West 4.7 km/h 13.0 km/h 71% 0.0 mm CLR
11:15 16.1 °C 10.8 °C 1024.6 hPa NW 4.7 km/h 13.0 km/h 71% 0.0 mm CLR
11:20 16.2 °C 10.9 °C 1024.6 hPa WSW 4.7 km/h 13.0 km/h 71% 0.0 mm CLR
11:25 16.4 °C 10.9 °C 1024.3 hPa West 4.7 km/h 13.0 km/h 70% 0.0 mm CLR
11:26 16.4 °C 10.7 °C 1024.3 hPa West 4.7 km/h 13.0 km/h 69% 0.0 mm CLR
11:31 16.6 °C 10.7 °C 1024.3 hPa SSW 4.7 km/h 13.0 km/h 68% 0.0 mm CLR
11:36 16.7 °C 10.6 °C 1024.3 hPa SSW 4.7 km/h 13.0 km/h 67% 0.0 mm CLR
11:41 17.1 °C 10.4 °C 1024.3 hPa SSW 3.2 km/h 13.0 km/h 65% 0.0 mm CLR
11:46 17.6 °C 10.2 °C 1024.3 hPa SW 3.2 km/h 13.0 km/h 62% 0.0 mm CLR
11:51 17.6 °C 10.0 °C 1024.3 hPa SW 3.2 km/h 13.0 km/h 61% 0.0 mm CLR
11:56 17.8 °C 9.9 °C 1024.3 hPa SSW 3.2 km/h 13.0 km/h 60% 0.0 mm CLR
12:01 18.2 °C 9.8 °C 1024.3 hPa East 3.9 km/h 13.0 km/h 58% 0.0 mm CLR
12:06 18.6 °C 9.4 °C 1024.3 hPa North 3.9 km/h 13.0 km/h 55% 0.0 mm CLR
12:11 18.9 °C 9.9 °C 1024.3 hPa North 3.9 km/h 13.0 km/h 56% 0.0 mm CLR
12:16 18.9 °C 9.7 °C 1024.3 hPa ESE 3.9 km/h 13.0 km/h 55% 0.0 mm CLR
12:21 19.1 °C 9.6 °C 1023.9 hPa NW 3.9 km/h 13.0 km/h 54% 0.0 mm CLR
12:26 19.1 °C 9.3 °C 1023.9 hPa NE 3.9 km/h 13.0 km/h 53% 0.0 mm CLR
12:31 18.9 °C 9.1 °C 1023.9 hPa NNE 4.7 km/h 15.6 km/h 53% 0.0 mm CLR
12:36 18.9 °C 8.6 °C 1023.9 hPa NE 4.7 km/h 15.6 km/h 51% 0.0 mm CLR
12:41 19.1 °C 8.1 °C 1023.9 hPa ENE 8.4 km/h 16.7 km/h 49% 0.0 mm CLR
12:46 19.0 °C 8.1 °C 1023.9 hPa NE 8.4 km/h 18.5 km/h 49% 0.0 mm CLR
12:51 19.3 °C 7.7 °C 1023.6 hPa NW 8.4 km/h 18.5 km/h 47% 0.0 mm CLR
12:56 19.6 °C 7.3 °C 1023.6 hPa NNE 8.4 km/h 18.5 km/h 45% 0.0 mm CLR
13:01 19.6 °C 7.3 °C 1023.6 hPa ENE 5.8 km/h 20.9 km/h 45% 0.0 mm CLR
13:06 19.7 °C 7.1 °C 1023.2 hPa NE 5.8 km/h 20.9 km/h 44% 0.0 mm CLR
13:11 20.0 °C 7.7 °C 1023.2 hPa NE 8.7 km/h 20.9 km/h 45% 0.0 mm CLR
13:16 20.3 °C 7.7 °C 1023.2 hPa NNE 8.7 km/h 20.9 km/h 44% 0.0 mm CLR
13:21 20.2 °C 7.9 °C 1023.2 hPa East 7.6 km/h 20.9 km/h 45% 0.0 mm CLR
13:26 20.3 °C 7.9 °C 1023.2 hPa NW 7.6 km/h 20.9 km/h 45% 0.0 mm CLR
13:31 20.3 °C 8.3 °C 1023.2 hPa NNE 8.7 km/h 20.9 km/h 46% 0.0 mm CLR
13:36 20.5 °C 8.2 °C 1022.9 hPa NNE 8.7 km/h 20.9 km/h 45% 0.0 mm CLR
13:41 20.4 °C 7.7 °C 1022.9 hPa North 11.9 km/h 24.1 km/h 44% 0.0 mm CLR
13:46 20.7 °C 8.0 °C 1022.9 hPa ESE 11.9 km/h 24.1 km/h 44% 0.0 mm CLR
13:51 20.8 °C 7.1 °C 1022.6 hPa NNE 11.1 km/h 24.1 km/h 41% 0.0 mm CLR
13:56 20.7 °C 6.9 °C 1022.6 hPa ENE 11.1 km/h 24.1 km/h 41% 0.0 mm CLR
14:01 20.7 °C 6.9 °C 1022.6 hPa NE 12.2 km/h 25.6 km/h 41% 0.0 mm CLR
14:06 20.8 °C 6.7 °C 1022.2 hPa ENE 12.2 km/h 25.6 km/h 40% 0.0 mm CLR
14:11 20.9 °C 6.8 °C 1022.2 hPa East 13.0 km/h 25.6 km/h 40% 0.0 mm CLR
14:16 21.1 °C 6.6 °C 1022.2 hPa ESE 13.0 km/h 25.6 km/h 39% 0.0 mm CLR
14:21 21.2 °C 6.7 °C 1022.2 hPa NNE 13.0 km/h 25.6 km/h 39% 0.0 mm CLR
14:26 21.2 °C 6.7 °C 1022.2 hPa NNE 13.0 km/h 25.9 km/h 39% 0.0 mm CLR
14:31 21.1 °C 6.6 °C 1022.2 hPa NNE 12.2 km/h 25.9 km/h 39% 0.0 mm CLR
14:36 21.0 °C 6.5 °C 1022.2 hPa ENE 12.2 km/h 31.7 km/h 39% 0.0 mm CLR
14:41 21.2 °C 5.9 °C 1022.2 hPa NNE 14.0 km/h 31.7 km/h 37% 0.0 mm CLR
14:46 21.2 °C 5.5 °C 1022.2 hPa NE 14.0 km/h 31.7 km/h 36% 0.0 mm CLR
14:51 21.3 °C 5.2 °C 1022.2 hPa NW 14.0 km/h 31.7 km/h 35% 0.0 mm CLR
14:56 21.4 °C 4.9 °C 1022.2 hPa NE 14.0 km/h 31.7 km/h 34% 0.0 mm CLR
15:01 21.3 °C 3.9 °C 1022.2 hPa NE 11.9 km/h 31.7 km/h 32% 0.0 mm CLR
15:06 21.4 °C 4.0 °C 1022.2 hPa ENE 11.9 km/h 31.7 km/h 32% 0.0 mm CLR
15:11 21.4 °C 3.6 °C 1022.2 hPa WNW 12.2 km/h 31.7 km/h 31% 0.0 mm CLR
15:16 21.4 °C 3.6 °C 1022.2 hPa ENE 12.2 km/h 31.7 km/h 31% 0.0 mm CLR
15:21 21.5 °C 3.7 °C 1022.2 hPa East 11.9 km/h 31.7 km/h 31% 0.0 mm CLR
15:26 21.6 °C 3.7 °C 1022.2 hPa ENE 11.9 km/h 31.7 km/h 31% 0.0 mm CLR
15:31 21.4 °C 3.6 °C 1022.2 hPa North 13.0 km/h 31.7 km/h 31% 0.0 mm CLR
15:36 21.3 °C 3.5 °C 1022.2 hPa NE 13.0 km/h 31.7 km/h 31% 0.0 mm CLR
15:41 21.4 °C 3.6 °C 1022.2 hPa NE 14.8 km/h 31.7 km/h 31% 0.0 mm CLR
15:46 21.6 °C 3.7 °C 1022.2 hPa NNE 14.8 km/h 31.7 km/h 31% 0.0 mm CLR
15:51 21.6 °C 3.3 °C 1021.9 hPa ENE 14.0 km/h 31.7 km/h 30% 0.0 mm CLR
15:56 21.6 °C 3.3 °C 1021.9 hPa NE 14.0 km/h 31.7 km/h 30% 0.0 mm CLR
16:01 21.7 °C 3.3 °C 1021.9 hPa NNE 14.0 km/h 31.7 km/h 30% 0.0 mm CLR
16:06 21.5 °C 3.2 °C 1021.6 hPa ENE 14.0 km/h 31.7 km/h 30% 0.0 mm CLR
16:11 21.5 °C 2.7 °C 1021.6 hPa North 15.6 km/h 31.7 km/h 29% 0.0 mm CLR
16:16 21.5 °C 2.7 °C 1021.6 hPa East 15.6 km/h 31.7 km/h 29% 0.0 mm CLR
16:21 21.7 °C 2.4 °C 1021.6 hPa NNW 15.6 km/h 31.7 km/h 28% 0.0 mm CLR
16:26 21.6 °C 2.3 °C 1021.6 hPa East 15.6 km/h 31.7 km/h 28% 0.0 mm CLR
16:31 21.6 °C 2.3 °C 1021.6 hPa NE 10.3 km/h 31.7 km/h 28% 0.0 mm CLR
16:36 21.3 °C 2.1 °C 1021.6 hPa East 10.3 km/h 31.7 km/h 28% 0.0 mm CLR
16:41 21.3 °C 2.1 °C 1021.6 hPa ENE 14.8 km/h 31.7 km/h 28% 0.0 mm CLR
16:42 21.2 °C 1.4 °C 1021.6 hPa East 14.8 km/h 31.7 km/h 27% 0.0 mm CLR
16:47 21.3 °C 1.6 °C 1021.6 hPa NE 13.0 km/h 31.7 km/h 27% 0.0 mm CLR
16:52 21.3 °C 2.1 °C 1021.6 hPa ESE 13.0 km/h 31.7 km/h 28% 0.0 mm CLR
16:57 21.5 °C 2.2 °C 1021.6 hPa ENE 12.2 km/h 31.7 km/h 28% 0.0 mm CLR
17:02 21.4 °C 2.1 °C 1021.6 hPa NE 12.2 km/h 31.7 km/h 28% 0.0 mm CLR
17:07 21.4 °C 2.6 °C 1021.6 hPa East 13.7 km/h 31.7 km/h 29% 0.0 mm CLR
17:12 21.4 °C 2.1 °C 1021.6 hPa SE 13.7 km/h 31.7 km/h 28% 0.0 mm CLR
17:17 21.1 °C 1.9 °C 1021.6 hPa NE 15.6 km/h 31.7 km/h 28% 0.0 mm CLR
17:22 21.2 °C 2.4 °C 1021.6 hPa NE 15.6 km/h 31.7 km/h 29% 0.0 mm CLR
17:27 21.3 °C 2.6 °C 1021.6 hPa NNE 13.0 km/h 31.7 km/h 29% 0.0 mm CLR
17:32 21.2 °C 2.4 °C 1021.6 hPa NNE 13.0 km/h 31.7 km/h 29% 0.0 mm CLR
17:37 21.1 °C 2.3 °C 1021.6 hPa NE 12.2 km/h 31.7 km/h 29% 0.0 mm CLR
17:42 20.8 °C 2.6 °C 1021.6 hPa NE 12.2 km/h 31.7 km/h 30% 0.0 mm CLR
17:47 20.8 °C 2.6 °C 1021.6 hPa East 13.7 km/h 31.7 km/h 30% 0.0 mm CLR
17:52 20.7 °C 2.9 °C 1021.6 hPa NE 13.7 km/h 31.7 km/h 31% 0.0 mm CLR
17:57 20.6 °C 2.4 °C 1021.6 hPa NE 13.0 km/h 31.7 km/h 30% 0.0 mm CLR
18:02 20.6 °C 2.9 °C 1021.6 hPa NE 13.0 km/h 31.7 km/h 31% 0.0 mm CLR
18:07 20.5 °C 2.8 °C 1021.2 hPa NNE 14.8 km/h 31.7 km/h 31% 0.0 mm CLR
18:12 20.5 °C 2.8 °C 1021.2 hPa ENE 14.8 km/h 31.7 km/h 31% 0.0 mm CLR
18:17 20.3 °C 3.1 °C 1021.2 hPa North 16.1 km/h 31.7 km/h 32% 0.0 mm CLR
18:22 20.4 °C 3.6 °C 1021.2 hPa NNE 16.1 km/h 31.7 km/h 33% 0.0 mm CLR
18:27 20.2 °C 3.4 °C 1021.2 hPa East 11.9 km/h 31.7 km/h 33% 0.0 mm CLR
18:32 20.1 °C 3.3 °C 1021.2 hPa East 11.9 km/h 31.7 km/h 33% 0.0 mm CLR
18:37 20.0 °C 3.7 °C 1021.2 hPa NNE 11.9 km/h 31.7 km/h 34% 0.0 mm CLR
18:42 20.0 °C 4.1 °C 1021.2 hPa North 11.9 km/h 31.7 km/h 35% 0.0 mm CLR
18:47 19.8 °C 4.3 °C 1021.2 hPa ENE 10.0 km/h 31.7 km/h 36% 0.0 mm CLR
18:52 19.7 °C 4.6 °C 1021.2 hPa NNE 10.0 km/h 31.7 km/h 37% 0.0 mm CLR
18:58 19.6 °C 4.9 °C 1021.2 hPa East 12.2 km/h 31.7 km/h 38% 0.0 mm CLR
19:03 19.6 °C 4.9 °C 1021.2 hPa NNE 12.2 km/h 31.7 km/h 38% 0.0 mm CLR
19:08 19.3 °C 5.0 °C 1021.6 hPa NNE 11.9 km/h 31.7 km/h 39% 0.0 mm CLR
19:09 19.3 °C 5.0 °C 1021.6 hPa ENE 11.9 km/h 31.7 km/h 39% 0.0 mm CLR
19:14 19.2 °C 5.3 °C 1021.6 hPa NE 11.9 km/h 31.7 km/h 40% 0.0 mm CLR
19:19 19.0 °C 5.1 °C 1021.6 hPa NE 13.0 km/h 31.7 km/h 40% 0.0 mm CLR
19:24 18.9 °C 5.0 °C 1021.6 hPa NE 13.0 km/h 31.7 km/h 40% 0.0 mm CLR
19:29 18.8 °C 5.3 °C 1021.6 hPa ENE 13.0 km/h 31.7 km/h 41% 0.0 mm CLR
19:34 18.7 °C 5.2 °C 1021.6 hPa North 13.0 km/h 31.7 km/h 41% 0.0 mm CLR
19:39 18.6 °C 5.4 °C 1021.6 hPa NNE 13.0 km/h 31.7 km/h 42% 0.0 mm CLR
19:44 18.5 °C 5.7 °C 1021.6 hPa NNE 13.0 km/h 31.7 km/h 43% 0.0 mm CLR
19:49 18.4 °C 7.8 °C 1021.6 hPa NE 11.9 km/h 31.7 km/h 50% 0.0 mm CLR
19:54 18.2 °C 8.2 °C 1021.9 hPa NNE 11.9 km/h 31.7 km/h 52% 0.0 mm CLR
19:59 18.1 °C 8.4 °C 1021.9 hPa NE 10.3 km/h 31.7 km/h 53% 0.0 mm CLR
20:04 17.9 °C 8.4 °C 1021.9 hPa NE 10.3 km/h 31.7 km/h 54% 0.0 mm CLR
20:09 17.8 °C 8.6 °C 1021.9 hPa NNE 9.5 km/h 31.7 km/h 55% 0.0 mm CLR
20:14 17.7 °C 8.8 °C 1021.9 hPa NE 9.7 km/h 14.5 km/h 56% 0.0 mm CLR
20:19 17.5 °C 9.2 °C 1021.9 hPa NE 9.5 km/h 31.7 km/h 58% 0.0 mm CLR
20:24 17.4 °C 9.3 °C 1021.9 hPa NE 9.7 km/h 16.1 km/h 59% 0.0 mm CLR
20:29 17.2 °C 9.4 °C 1021.9 hPa NE 11.3 km/h 16.1 km/h 60% 0.0 mm CLR
Murcia-Puente Tocinos, España
Compliments of Weather Underground - 2.5 mb

La estación de MeteoMurcia.com, publica sus datos en los siguientes proyectos:

Meteoclimatic www.awekas.at

W3Counter
Web Analytics